Time,TemperatureF,DewpointF,PressureIn,WindDirection,WindDirectionDegrees,WindSpeedMPH,WindSpeedGustMPH,Humidity,HourlyPrecipIn,Conditions,Clouds,dailyrainin,SoftwareType,DateUTC
2013-10-10 00:13:00,52.0,41.0,-100.00,SE,137,8.0,12.0,66,0.00,,,0.00,,2013-10-10 06:13:00,
2013-10-10 00:43:00,51.0,41.0,-100.00,ESE,113,11.0,14.0,70,0.00,,,0.00,,2013-10-10 06:43:00,
2013-10-10 01:11:00,48.0,41.0,-100.00,East,79,3.0,4.0,78,0.00,,,0.00,,2013-10-10 07:11:00,
2013-10-10 01:42:00,46.0,40.0,-100.00,North,10,6.0,8.0,79,0.00,,,0.00,,2013-10-10 07:42:00,
2013-10-10 02:11:00,45.0,40.0,-100.00,NE,45,6.0,6.0,84,0.00,,,0.00,,2013-10-10 08:11:00,
2013-10-10 02:43:00,44.0,39.0,-100.00,NNE,20,3.0,5.0,84,0.00,,,0.00,,2013-10-10 08:43:00,
2013-10-10 03:11:00,40.0,38.0,-100.00,North,349,3.0,3.0,92,0.00,,,0.00,,2013-10-10 09:11:00,
2013-10-10 03:43:00,40.0,38.0,-100.00,NNE,30,0.0,0.0,90,0.00,,,0.00,,2013-10-10 09:43:00,
2013-10-10 04:12:00,39.0,37.0,-100.00,WNW,284,0.0,0.0,93,0.00,,,0.00,,2013-10-10 10:12:00,
2013-10-10 04:43:00,39.0,36.0,-100.00,NW,318,3.0,3.0,92,0.00,,,0.00,,2013-10-10 10:43:00,
2013-10-10 05:12:00,36.0,34.0,-100.00,NW,319,5.0,6.0,93,0.00,,,0.00,,2013-10-10 11:12:00,
2013-10-10 05:42:00,39.0,36.0,-100.00,WNW,299,4.0,4.0,89,0.00,,,0.00,,2013-10-10 11:42:00,
2013-10-10 06:11:00,39.0,36.0,-100.00,SSW,203,0.0,2.0,89,0.00,,,0.00,,2013-10-10 12:11:00,
2013-10-10 06:42:00,37.0,35.0,-100.00,SSW,208,0.0,0.0,94,0.00,,,0.00,,2013-10-10 12:42:00,
2013-10-10 07:11:00,36.0,35.0,-100.00,SSW,195,5.0,5.0,93,0.00,,,0.00,,2013-10-10 13:11:00,
2013-10-10 07:42:00,36.0,35.0,-100.00,SSW,196,2.0,4.0,95,0.00,,,0.00,,2013-10-10 13:42:00,
2013-10-10 08:11:00,37.0,34.0,-100.00,WSW,248,8.0,8.0,91,0.00,,,0.00,,2013-10-10 14:11:00,
2013-10-10 08:42:00,37.0,35.0,-100.00,SE,143,5.0,6.0,91,0.00,,,0.00,,2013-10-10 14:42:00,
2013-10-10 09:11:00,39.0,35.0,-100.00,SW,223,9.0,11.0,88,0.00,,,0.00,,2013-10-10 15:11:00,
2013-10-10 09:43:00,39.0,36.0,-100.00,SW,227,6.0,8.0,87,0.00,,,0.00,,2013-10-10 15:43:00,
2013-10-10 10:13:00,42.0,37.0,-100.00,SSE,152,6.0,8.0,82,0.00,,,0.00,,2013-10-10 16:13:00,
2013-10-10 10:42:00,44.0,36.0,-100.00,SW,219,6.0,8.0,72,0.00,,,0.00,,2013-10-10 16:42:00,
2013-10-10 11:12:00,47.0,35.0,-100.00,SW,226,8.0,10.0,63,0.00,,,0.00,,2013-10-10 17:12:00,
2013-10-10 11:42:00,50.0,36.0,-100.00,SSE,168,9.0,10.0,60,0.00,,,0.00,,2013-10-10 17:42:00,
2013-10-10 11:52:00,50.0,36.0,-100.00,SSE,168,9.0,10.0,60,0.00,,,0.00,,2013-10-10 17:52:00,
2013-10-10 12:02:00,50.0,36.0,-100.00,SSE,168,9.0,10.0,60,0.00,,,0.00,,2013-10-10 18:02:00,
2013-10-10 12:21:00,52.0,37.0,-100.00,SSE,161,13.0,16.0,58,0.00,,,0.00,,2013-10-10 18:21:00,
2013-10-10 12:32:00,52.0,37.0,-100.00,SSE,161,13.0,16.0,58,0.00,,,0.00,,2013-10-10 18:32:00,
2013-10-10 12:52:00,54.0,35.0,-100.00,West,278,7.0,11.0,49,0.00,,,0.00,,2013-10-10 18:52:00,
2013-10-10 13:01:00,54.0,35.0,-100.00,West,278,7.0,11.0,49,0.00,,,0.00,,2013-10-10 19:01:00,
2013-10-10 13:21:00,55.0,35.0,-100.00,SSW,205,5.0,9.0,47,0.00,,,0.00,,2013-10-10 19:21:00,
2013-10-10 13:32:00,55.0,35.0,-100.00,SSW,205,5.0,9.0,47,0.00,,,0.00,,2013-10-10 19:32:00,
2013-10-10 13:53:00,54.0,35.0,-100.00,SW,219,10.0,14.0,49,0.00,,,0.00,,2013-10-10 19:53:00,
2013-10-10 14:02:00,54.0,35.0,-100.00,SW,219,10.0,14.0,49,0.00,,,0.00,,2013-10-10 20:02:00,
2013-10-10 14:22:00,53.0,35.0,-100.00,SW,227,18.0,22.0,50,0.00,,,0.00,,2013-10-10 20:22:00,
2013-10-10 14:32:00,53.0,35.0,-100.00,SW,227,18.0,22.0,50,0.00,,,0.00,,2013-10-10 20:32:00,
2013-10-10 14:52:00,51.0,34.0,-100.00,SW,220,17.0,25.0,52,0.00,,,0.00,,2013-10-10 20:52:00,
2013-10-10 15:03:00,51.0,34.0,-100.00,SW,220,17.0,25.0,52,0.00,,,0.00,,2013-10-10 21:03:00,
2013-10-10 15:21:00,50.0,35.0,-100.00,SW,226,18.0,22.0,55,0.00,,,0.00,,2013-10-10 21:21:00,
2013-10-10 15:34:00,50.0,35.0,-100.00,SW,226,18.0,22.0,55,0.00,,,0.00,,2013-10-10 21:34:00,
2013-10-10 15:54:00,51.0,35.0,-100.00,SW,217,16.0,20.0,55,0.00,,,0.00,,2013-10-10 21:54:00,
2013-10-10 16:04:00,51.0,35.0,-100.00,SW,217,16.0,20.0,55,0.00,,,0.00,,2013-10-10 22:04:00,
2013-10-10 16:24:00,51.0,36.0,-100.00,SW,222,16.0,24.0,57,0.00,,,0.00,,2013-10-10 22:24:00,
2013-10-10 16:33:00,51.0,36.0,-100.00,SW,222,16.0,24.0,57,0.00,,,0.00,,2013-10-10 22:33:00,
2013-10-10 16:53:00,50.0,36.0,-100.00,SW,222,18.0,24.0,58,0.00,,,0.00,,2013-10-10 22:53:00,
2013-10-10 17:03:00,50.0,36.0,-100.00,SW,222,18.0,24.0,58,0.00,,,0.00,,2013-10-10 23:03:00,
2013-10-10 17:23:00,51.0,35.0,-100.00,SW,216,15.0,22.0,55,0.00,,,0.00,,2013-10-10 23:23:00,
2013-10-10 17:33:00,51.0,35.0,-100.00,SW,216,15.0,22.0,55,0.00,,,0.00,,2013-10-10 23:33:00,
2013-10-10 17:52:00,51.0,36.0,-100.00,SW,217,14.0,20.0,56,0.00,,,0.00,,2013-10-10 23:52:00,
2013-10-10 18:02:00,51.0,36.0,-100.00,SW,217,14.0,20.0,56,0.00,,,0.00,,2013-10-11 00:02:00,
2013-10-10 18:21:00,51.0,38.0,-100.00,SW,217,10.0,17.0,59,0.00,,,0.00,,2013-10-11 00:21:00,
2013-10-10 18:32:00,51.0,38.0,-100.00,SW,217,10.0,17.0,59,0.00,,,0.00,,2013-10-11 00:32:00,
2013-10-10 18:52:00,52.0,33.0,-100.00,SW,230,20.0,23.0,49,0.00,,,0.00,,2013-10-11 00:52:00,
2013-10-10 19:01:00,52.0,33.0,-100.00,SW,230,20.0,23.0,49,0.00,,,0.00,,2013-10-11 01:01:00,
2013-10-10 19:21:00,50.0,34.0,-100.00,SW,224,13.0,15.0,54,0.00,,,0.00,,2013-10-11 01:21:00,
2013-10-10 19:32:00,50.0,34.0,-100.00,SW,224,13.0,15.0,54,0.00,,,0.00,,2013-10-11 01:32:00,
2013-10-10 19:52:00,50.0,32.0,-100.00,SW,224,16.0,19.0,50,0.00,,,0.00,,2013-10-11 01:52:00,
2013-10-10 20:02:00,50.0,32.0,-100.00,SW,224,16.0,19.0,50,0.00,,,0.00,,2013-10-11 02:02:00,
2013-10-10 20:21:00,50.0,31.0,-100.00,SW,223,15.0,18.0,48,0.00,,,0.00,,2013-10-11 02:21:00,
2013-10-10 20:32:00,50.0,31.0,-100.00,SW,223,15.0,18.0,48,0.00,,,0.00,,2013-10-11 02:32:00,
2013-10-10 20:52:00,48.0,29.0,-100.00,SW,219,13.0,18.0,48,0.00,,,0.00,,2013-10-11 02:52:00,
2013-10-10 21:02:00,48.0,29.0,-100.00,SW,219,13.0,18.0,48,0.00,,,0.00,,2013-10-11 03:02:00,
2013-10-10 21:23:00,46.0,29.0,-100.00,SSW,202,9.0,13.0,52,0.00,,,0.00,,2013-10-11 03:23:00,
2013-10-10 21:34:00,46.0,29.0,-100.00,SSW,202,9.0,13.0,52,0.00,,,0.00,,2013-10-11 03:34:00,
2013-10-10 21:54:00,44.0,30.0,-100.00,South,184,6.0,10.0,58,0.00,,,0.00,,2013-10-11 03:54:00,
2013-10-10 22:04:00,44.0,30.0,-100.00,South,184,6.0,10.0,58,0.00,,,0.00,,2013-10-11 04:04:00,
2013-10-10 22:24:00,43.0,30.0,-100.00,South,186,7.0,9.0,59,0.00,,,0.00,,2013-10-11 04:24:00,
2013-10-10 22:34:00,43.0,30.0,-100.00,South,186,7.0,9.0,59,0.00,,,0.00,,2013-10-11 04:34:00,
2013-10-10 22:53:00,42.0,30.0,-100.00,SE,143,7.0,8.0,62,0.00,,,0.00,,2013-10-11 04:53:00,
2013-10-10 23:03:00,42.0,30.0,-100.00,SE,143,7.0,8.0,62,0.00,,,0.00,,2013-10-11 05:03:00,
2013-10-10 23:23:00,43.0,31.0,-100.00,SE,127,6.0,8.0,63,0.00,,,0.00,,2013-10-11 05:23:00,
2013-10-10 23:34:00,43.0,31.0,-100.00,SE,127,6.0,8.0,63,0.00,,,0.00,,2013-10-11 05:34:00,
2013-10-10 23:52:00,43.0,31.0,-100.00,South,178,10.0,13.0,63,0.00,,,0.00,,2013-10-11 05:52:00,